Latest Weather Observations for Coen Airport

IDQ60801

Issued at 1:32 pm EST Monday 26 September 2016 (issued every 30 minutes, with the page automatically refreshed every 10 minutes)

About weather observations | Map of weather stations | Latest weather observations for QLD | Other Formats
Station Details ID: 027073 Name: COEN AIRPORT Lat: -13.76 Lon: 143.12 Height: 159.3 m
Data from the previous 72 hours. | See also: Recent months at Coen Airport
Date/Time
EST
Temp
°C
App
Temp
°C
Dew
Point
°C
Rel
Hum
%
Delta-T
°C
Wind Press
QNH
hPa
Press
MSL
hPa
Rain since
9am
mm
Dir  Spd
km/h
Gust
km/h
Spd
kts
Gust
kts
26/01:30pm 34.6 33.5 18.6 38 10.5 NNE 22 33 12 18 1009.2 - 0.0
26/01:00pm 35.2 34.5 19.6 40 10.4 NNE 22 35 12 19 1009.4 - 0.0
26/12:30pm 34.6 34.0 19.8 41 9.9 NE 22 33 12 18 1010.2 - 0.0
26/12:00pm 34.1 33.9 20.5 45 9.2 NNE 22 35 12 19 1010.6 1009.8 0.0
26/11:30am 33.5 36.2 21.3 48 8.3 E 9 19 5 10 1011.4 - 0.0
26/11:00am 33.3 34.3 22.1 52 7.7 NNE 20 26 11 14 1011.8 - 0.0
26/10:30am 32.9 37.0 23.2 56 6.7 NNE 7 17 4 9 1012.0 - 0.0
26/10:00am 30.8 34.0 22.4 61 5.8 ENE 9 17 5 9 1012.4 - 0.0
26/09:30am 29.5 32.8 22.5 66 4.8 SE 9 15 5 8 1012.8 - 0.0
26/09:00am 27.9 31.2 21.9 70 4.1 ESE 7 17 4 9 1013.1 1012.3 0.0
26/08:30am 26.9 29.9 21.9 74 3.4 S 9 13 5 7 1013.1 - 0.0
26/08:00am 26.0 29.7 22.3 80 2.5 ESE 6 7 3 4 1012.8 - 0.0
26/07:30am 24.2 27.1 21.1 83 2.0 SE 7 9 4 5 1012.5 - 0.0
26/07:00am 21.5 23.5 19.1 86 1.5 SE 7 9 4 5 1012.3 - 0.0
26/06:30am 19.9 21.7 17.5 86 1.5 S 4 7 2 4 1011.9 - 0.0
26/06:00am 19.1 20.9 16.5 85 1.6 SSE 2 6 1 3 1011.2 1010.4 0.0
26/05:30am 19.5 20.7 16.9 85 1.6 SE 6 7 3 4 1010.8 - 0.0
26/05:00am 19.3 21.5 16.5 84 1.7 CALM 0 0 0 0 1010.4 - 0.0
26/04:30am 20.0 22.5 17.2 84 1.7 CALM 0 6 0 3 1010.4 - 0.0
26/04:00am 20.4 21.9 17.6 84 1.7 SE 6 7 3 4 1010.4 - 0.0
26/03:30am 20.4 21.3 17.6 84 1.7 SE 9 13 5 7 1010.6 - 0.0
26/03:00am 20.5 21.9 17.7 84 1.7 SSE 7 9 4 5 1011.0 1010.2 0.0
26/02:30am 20.7 22.1 17.9 84 1.7 SE 7 9 4 5 1011.2 - 0.0
26/02:00am 20.7 22.1 17.7 83 1.9 SE 7 7 4 4 1011.3 - 0.0
26/01:30am 21.1 23.2 18.1 83 1.9 S 4 6 2 3 1011.3 - 0.0
26/01:00am 21.0 23.6 17.6 81 2.1 CALM 0 0 0 0 1011.6 - 0.0
26/12:30am 21.8 24.8 18.4 81 2.1 CALM 0 6 0 3 1011.7 - 0.0
26/12:00am 22.3 24.3 18.7 80 2.3 SE 6 7 3 4 1011.8 1011.0 0.0
 
Date/Time
EST
Temp
°C
App
Temp
°C
Dew
Point
°C
Rel
Hum
%
Delta-T
°C
Wind Press
QNH
hPa
Press
MSL
hPa
Rain since
9am
mm
Dir  Spd
km/h
Gust
km/h
Spd
kts
Gust
kts
25/11:30pm 23.4 26.9 19.5 79 2.5 CALM 0 6 0 3 1012.1 - 0.0
25/11:00pm 23.8 26.0 19.7 78 2.7 WNW 7 9 4 5 1012.1 - 0.0
25/10:30pm 24.0 25.6 19.9 78 2.7 NNE 11 17 6 9 1011.7 - 0.0
25/10:00pm 24.0 25.1 19.7 77 2.8 NNE 13 17 7 9 1011.7 - 0.0
25/09:30pm 24.3 25.4 19.6 75 3.0 NNE 13 20 7 11 1011.5 - 0.0
25/09:00pm 24.5 25.2 19.6 74 3.2 NNE 15 22 8 12 1011.3 1010.5 0.0
25/08:30pm 24.8 25.3 19.2 71 3.6 NNE 15 24 8 13 1011.0 - 0.0
25/08:00pm 25.1 25.8 18.8 68 4.0 NNE 13 17 7 9 1010.6 - 0.0
25/07:30pm 25.7 25.8 18.4 64 4.7 NNE 15 22 8 12 1010.4 - 0.0
25/07:00pm 26.7 26.7 18.0 59 5.5 NE 15 22 8 12 1010.0 - 0.0
25/06:30pm 27.8 26.8 16.7 50 7.0 NE 17 22 9 12 1009.5 - 0.0
25/06:00pm 29.1 27.3 17.0 48 7.7 NNE 22 28 12 15 1009.0 1008.2 0.0
25/05:30pm 30.5 28.7 16.9 44 8.6 NE 22 32 12 17 1008.4 - 0.0
25/05:00pm 31.3 29.3 16.5 41 9.4 NE 22 30 12 16 1008.0 - 0.0
25/04:30pm 32.8 30.8 17.4 39 9.9 NE 24 33 13 18 1007.8 - 0.0
25/04:00pm 33.3 31.9 17.9 40 10.0 NE 22 32 12 17 1007.6 - 0.0
25/03:30pm 34.5 33.9 18.5 38 10.5 NE 19 32 10 17 1007.6 - 0.0
25/03:00pm 34.1 32.8 18.2 39 10.4 NE 22 32 12 17 1007.6 1006.9 0.0
25/02:30pm 34.6 33.1 18.6 38 10.5 NE 24 33 13 18 1007.8 - 0.0
25/02:00pm 35.0 33.3 19.0 39 10.6 NE 26 43 14 23 1007.9 - 0.0
25/01:30pm 35.6 35.5 19.9 39 10.5 NNE 20 32 11 17 1008.4 - 0.0
25/01:00pm 35.2 36.6 21.1 43 9.6 N 15 20 8 11 1009.1 - 0.0
25/12:30pm 33.4 34.4 20.2 46 8.8 NNE 15 24 8 13 1009.9 - 0.0
25/12:00pm 33.9 36.4 21.7 49 8.3 E 11 17 6 9 1010.5 1009.7 0.0
25/11:30am 32.4 33.4 21.0 51 7.7 NNE 17 24 9 13 1011.2 - 0.0
25/11:00am 32.5 34.0 22.0 54 7.2 NNE 17 20 9 11 1011.6 - 0.0
25/10:30am 30.7 32.4 20.9 56 6.6 NE 13 20 7 11 1011.9 - 0.0
25/10:00am 29.1 32.1 21.3 62 5.2 SSW 7 13 4 7 1012.3 - 0.0
25/09:30am 28.6 31.9 21.9 67 4.5 SE 7 11 4 6 1012.6 - 0.0
25/09:00am 26.8 29.8 21.3 72 3.7 NNW 7 13 4 7 1012.6 1011.8 0.0
25/08:30am 25.9 29.3 21.6 77 2.9 N 6 9 3 5 1012.5 - 0.0
25/08:00am 24.4 28.7 21.1 82 2.2 CALM 0 6 0 3 1012.2 - 0.0
25/07:30am 22.2 24.6 19.6 85 1.7 ESE 6 7 3 4 1012.0 - 0.0
25/07:00am 20.2 22.9 17.8 86 1.5 CALM 0 0 0 0 1011.4 - 0.0
25/06:30am 19.3 21.7 16.9 86 1.5 CALM 0 0 0 0 1011.0 - 0.0
25/06:00am 19.8 20.9 17.2 85 1.6 SE 7 9 4 5 1010.6 1009.7 0.0
25/05:30am 19.7 20.8 17.1 85 1.6 SSE 7 9 4 5 1010.4 - 0.0
25/05:00am 20.3 21.7 17.7 85 1.6 S 7 9 4 5 1010.1 - 0.0
25/04:30am 20.3 21.3 17.7 85 1.6 SSE 9 11 5 6 1009.9 - 0.0
25/04:00am 20.0 22.1 17.2 84 1.7 SE 2 9 1 5 1009.8 - 0.0
25/03:30am 20.0 22.4 17.0 83 1.8 CALM 0 0 0 0 1009.9 - 0.0
25/03:00am 20.2 21.8 17.0 82 2.0 SE 4 7 2 4 1010.0 1009.2 0.0
25/02:30am 20.7 22.2 17.5 82 2.0 SE 6 7 3 4 1010.1 - 0.0
25/02:00am 21.1 23.0 17.7 81 2.1 S 4 7 2 4 1010.3 - 0.0
25/01:30am 21.6 23.1 18.0 80 2.3 S 7 9 4 5 1010.5 - 0.0
25/01:00am 21.8 24.6 18.0 79 2.4 CALM 0 0 0 0 1010.6 - 0.0
25/12:30am 22.1 23.7 17.9 77 2.6 SSE 6 7 3 4 1010.8 - 0.0
25/12:00am 23.4 26.7 19.1 77 2.8 CALM 0 0 0 0 1011.0 1010.2 0.0
 
Date/Time
EST
Temp
°C
App
Temp
°C
Dew
Point
°C
Rel
Hum
%
Delta-T
°C
Wind Press
QNH
hPa
Press
MSL
hPa
Rain since
9am
mm
Dir  Spd
km/h
Gust
km/h
Spd
kts
Gust
kts
24/11:30pm 23.6 25.6 19.1 76 2.9 N 7 9 4 5 1011.0 - 0.0
24/11:00pm 24.1 24.8 19.6 76 2.9 NNE 15 20 8 11 1010.6 - 0.0
24/10:30pm 24.0 25.4 19.5 76 2.9 NNE 11 17 6 9 1010.6 - 0.0
24/10:00pm 24.2 24.9 19.7 76 2.9 NNE 15 22 8 12 1010.5 - 0.0
24/09:30pm 24.4 25.1 19.7 75 3.0 NE 15 24 8 13 1010.6 - 0.0
24/09:00pm 24.6 24.9 19.7 74 3.2 NNE 17 22 9 12 1010.4 1009.5 0.0
24/08:30pm 24.7 25.0 19.5 73 3.4 NE 17 24 9 13 1010.0 - 0.0
24/08:00pm 24.8 25.7 19.2 71 3.6 NE 13 20 7 11 1010.0 - 0.0
24/07:30pm 25.1 24.7 19.0 69 3.9 NE 19 32 10 17 1009.5 - 0.0
24/07:00pm 25.6 25.2 18.8 66 4.4 NE 19 26 10 14 1009.2 - 0.0
24/06:30pm 26.4 26.0 19.0 63 4.8 NE 19 30 10 16 1008.9 - 0.0
24/06:00pm 27.6 27.7 19.1 59 5.5 NE 17 24 9 13 1008.5 1007.7 0.0
24/05:30pm 28.8 28.6 19.7 58 6.0 NNE 20 28 11 15 1008.1 - 0.0
24/05:00pm 29.1 28.0 19.4 55 6.3 NE 24 33 13 18 1007.9 - 0.0
24/04:30pm 29.9 28.9 19.6 54 6.8 NE 24 35 13 19 1007.8 - 0.0
24/04:00pm 31.1 31.2 20.4 53 7.1 NE 20 32 11 17 1007.7 - 0.0
24/03:30pm 31.8 31.5 20.4 51 7.6 NNE 22 35 12 19 1007.9 - 0.0
24/03:00pm 31.7 31.4 20.3 50 7.6 ENE 22 35 12 19 1008.1 1007.4 0.0
24/02:30pm 31.1 30.4 19.4 49 7.7 NE 22 30 12 16 1008.4 - 0.0
24/02:00pm 32.4 32.8 20.6 49 7.9 ENE 19 30 10 16 1008.6 - 0.0
24/01:30pm 33.3 34.0 21.5 50 8.0 NE 20 37 11 20 1009.0 - 0.0
24/01:00pm 34.0 35.4 21.8 49 8.4 NNE 17 30 9 16 1009.4 - 0.0
24/12:30pm 32.9 34.1 21.4 50 7.8 NE 17 33 9 18 1010.1 - 0.0
24/12:00pm 32.6 33.2 21.1 50 7.8 ENE 19 30 10 16 1010.5 1009.7 0.0
24/11:30am 31.1 32.3 20.7 54 7.0 NE 15 24 8 13 1011.2 - 0.0
24/11:00am 31.1 31.9 21.3 56 6.6 NNE 19 26 10 14 1011.5 - 0.0
24/10:30am 31.4 32.6 22.1 57 6.4 NNE 19 30 10 16 1012.0 - 0.0
24/10:00am 30.5 31.7 22.1 61 5.7 NNE 19 28 10 15 1012.3 - 0.0
24/09:30am 29.8 31.1 22.3 64 5.1 NNE 19 32 10 17 1012.5 - 0.0
24/09:00am 28.9 30.7 22.6 69 4.3 NNE 17 22 9 12 1012.4 1011.6 0.0
24/08:30am 27.4 30.2 22.3 73 3.5 ENE 11 19 6 10 1012.2 - 0.0
24/08:00am 25.4 28.7 21.5 79 2.6 N 6 9 3 5 1012.0 - 0.0
24/07:30am 23.3 27.1 20.2 83 2.0 CALM 0 0 0 0 1011.8 - 0.0
24/07:00am 21.2 24.3 18.6 85 1.6 CALM 0 2 0 1 1011.5 - 0.0
24/06:30am 20.0 21.7 17.2 84 1.7 SE 4 7 2 4 1011.3 - 0.0
24/06:00am 19.9 22.3 17.1 84 1.7 CALM 0 0 0 0 1010.8 1010.0 0.0
24/05:30am 20.4 21.6 17.4 83 1.8 SSE 7 9 4 5 1010.5 - 0.0
24/05:00am 20.5 23.0 17.3 82 2.0 CALM 0 0 0 0 1010.3 - 0.0
24/04:30am 21.1 23.9 17.9 82 2.0 CALM 0 0 0 0 1010.1 - 0.0
24/04:00am 21.1 23.7 17.5 80 2.2 CALM 0 0 0 0 1010.1 - 0.0
24/03:30am 21.9 24.8 18.3 80 2.3 CALM 0 0 0 0 1010.1 - 0.0
24/03:00am 22.6 24.7 19.0 80 2.3 SSE 6 7 3 4 1010.2 1009.4 0.0
24/02:30am 23.3 25.5 19.2 78 2.6 NE 6 7 3 4 1010.4 - 0.0
24/02:00am 23.8 27.1 19.9 79 2.5 NNE 2 7 1 4 1010.7 - 0.0
24/01:30am 23.6 27.1 19.5 78 2.6 CALM 0 6 0 3 1011.0 - 0.0
24/01:00am 23.8 26.0 19.7 78 2.7 N 7 9 4 5 1011.0 - 0.0
24/12:30am 23.5 25.4 19.0 76 2.9 NNE 7 9 4 5 1011.2 - 0.0
24/12:00am 23.9 26.1 19.2 75 3.0 ENE 6 9 3 5 1011.5 1010.7 0.0
 
Date/Time
EST
Temp
°C
App
Temp
°C
Dew
Point
°C
Rel
Hum
%
Delta-T
°C
Wind Press
QNH
hPa
Press
MSL
hPa
Rain since
9am
mm
Dir  Spd
km/h
Gust
km/h
Spd
kts
Gust
kts
23/11:30pm 24.3 26.5 19.6 75 3.0 E 7 11 4 6 1011.5 - 0.0
23/11:00pm 24.4 25.5 19.7 75 3.0 N 13 19 7 10 1011.3 - 0.0
23/10:30pm 24.6 26.9 19.9 75 3.1 NNE 7 13 4 7 1011.4 - 0.0
23/10:00pm 24.7 25.6 20.0 75 3.1 NE 15 24 8 13 1011.0 - 0.0
23/09:30pm 24.6 25.8 19.9 75 3.1 NNE 13 22 7 12 1011.2 - 0.0
23/09:00pm 24.4 26.2 19.5 74 3.2 NNE 9 15 5 8 1010.8 1009.9 0.0
23/08:30pm 24.7 25.0 19.5 73 3.4 NNE 17 26 9 14 1010.3 - 0.0
23/08:00pm 24.9 23.7 19.3 71 3.6 NNE 24 35 13 19 1009.7 - 0.0
23/07:30pm 25.3 25.0 19.2 69 3.9 NE 19 28 10 15 1009.5 - 0.0
23/07:00pm 25.8 25.3 18.7 65 4.6 NNE 19 28 10 15 1009.0 - 0.0
23/06:30pm 26.5 26.5 18.1 60 5.4 NE 15 24 8 13 1008.8 - 0.0
23/06:00pm 27.8 27.0 17.9 54 6.3 ENE 19 30 10 16 1008.3 1007.5 0.0
23/05:30pm 28.8 27.7 17.7 51 7.1 NE 20 32 11 17 1008.1 - 0.0
23/05:00pm 29.8 28.6 18.3 50 7.4 NE 22 33 12 18 1007.9 - 0.0
23/04:30pm 30.5 29.4 18.6 49 7.7 NE 22 33 12 18 1007.8 - 0.0
23/04:00pm 31.7 31.1 19.7 49 7.9 NE 22 35 12 19 1008.0 - 0.0
23/03:30pm 32.1 31.5 19.7 48 8.2 ENE 22 32 12 17 1008.0 - 0.0
23/03:00pm 32.8 32.7 20.0 47 8.5 NE 20 32 11 17 1008.3 1007.5 0.0
23/02:30pm 32.1 31.7 19.4 47 8.4 NE 20 32 11 17 1008.7 - 0.0
23/02:00pm 33.1 33.5 20.6 47 8.4 ENE 19 28 10 15 1009.0 - 0.0

Other Formats:

Comma delimited format used in spreadsheet applications
http://www.bom.gov.au/fwo/IDQ60801/IDQ60801.94183.axf

JavaScript Object Notation format (JSON) in row-major order
http://www.bom.gov.au/fwo/IDQ60801/IDQ60801.94183.json